Gonzalo Cruz

Chefscout - Almería
23 Apr 2028
Sonntag
Verarbeitung

Persönlichkeit

Anpassungsfähigkeit (9) Ehrgeiz (19) Kontroverse (8) Loyalität (11) Druck (16) Professionalität (13) Fairness (19) Temperament (3)

Profil

Trainerstil Demokratisch
Lizenz Nationale A
Entschlossenheit 7
Menschenführung 4
Motivation 6
Disziplin 5
Arbeitszufriedenheit
100%
Ermüdung
0%
Rolle Chefscout
Gehalt 35.9K p/W
Vertrag 14.03.2030

Leistung

Verhalten Gut
Trainingseffektivität
49%
Spielerentwicklung
20%
Verletzungsprävention
25%
Taktische Umsetzung
40%

Letzte Ereignisse

Empfahl ein Transferziel jetzt
Nahm an einer Scouting-Besprechung teil jetzt
Nahm an einer Scouting-Besprechung teil jetzt
Empfahl ein Transferziel jetzt
Spieler begutachtet jetzt
Spieler begutachtet jetzt
Spieler begutachtet jetzt
Spieler begutachtet jetzt

Aktuell beobachtet

141
Spieler Verein Status Fähigkeit Vertrauen Beobachtet Zuletzt beobachtet Letzte Stimme
Honest Ahanor Atalanta Aktiv 132 / 142 40% 11 22.04.2028 -
Jorge Moreno Athletic Bilbao Aktiv 130 / 131 40% 5 22.04.2028 -
Ayden Heaven Portsmouth Aktiv 148 / 150 40% 6 21.04.2028 -
Adam Aznou Everton Aktiv 130 / 132 40% 6 21.04.2028 -
Tylel Tati Chamois Niortais Aktiv 126 / 131 40% 1 21.04.2028 -
Giovanni Leoni Lincoln City Aktiv 136 / 145 40% 8 20.04.2028 -
Thulani Manyama SuperSport United Aktiv 115 / 118 40% 3 20.04.2028 -
Martim Cunha Porto Aktiv 105 / 114 40% 4 19.04.2028 -
Salvador Blopá Sporting CP Aktiv 126 / 126 40% 5 19.04.2028 -
Finn Jeltsch VfB Stuttgart Aktiv 139 / 145 40% 2 19.04.2028 -
Adnan Nainggolan KV Oostende Aktiv 106 / 113 40% 5 18.04.2028 -
Germán Barbas Burgos Aktiv 110 / 120 40% 5 17.04.2028 -
Simone Kosijer Triestina Aktiv 108 / 109 40% 2 17.04.2028 -
Chris Rigg Sunderland Aktiv 138 / 144 40% 4 17.04.2028 -
Josh Nichols Oldham Athletic Aktiv 121 / 126 40% 11 16.04.2028 -
Tyler Fletcher Rotherham United Aktiv 106 / 117 40% 4 16.04.2028 -
Nathan De Cat SC Freiburg Aktiv 127 / 139 40% 1 14.04.2028 -
Riquelme Thompson-Jones Accrington Stanley Aktiv 114 / 116 40% 4 12.04.2028 -
Kiani Inge Groningen Aktiv 112 / 120 40% 1 12.04.2028 -
Miguel Figueiredo Benfica Aktiv 122 / 126 40% 3 11.04.2028 -
Andrija Bulatović Chamois Niortais Aktiv 130 / 131 40% 3 11.04.2028 -
Jorthy Mokio ADO Den Haag Aktiv 134 / 137 40% 5 10.04.2028 -
Josh King Newcastle United Aktiv 145 / 148 40% 10 09.04.2028 -
Jorge Salinas Racing Santander Aktiv 129 / 137 40% 3 06.04.2028 -
Lucas Høgsberg RC Strasbourg Aktiv 142 / 145 40% 9 04.04.2028 -
Andrey Ivlev Nizhniy Novgorod Aktiv 107 / 118 40% 1 04.04.2028 -
Konta Ismaily Aktiv 98 / 105 40% 1 03.04.2028 -
Dmitry Pestryakov Krasnodar Aktiv 120 / 125 40% 4 06.03.2028 -
Trey Nyoni Rotherham United Aktiv 137 / 143 40% 6 28.02.2028 -
Matias Siltanen Malmo FF Aktiv 126 / 131 40% 8 27.02.2028 -
Izan Merino Málaga Aktiv 127 / 132 40% 6 25.02.2028 -
Daniel Banjaqui Benfica Aktiv 117 / 125 40% 3 25.02.2028 -
Cheveyo Tsawa Club Brugge Aktiv 123 / 129 40% 1 25.02.2028 -
Olivier Leroux Mouscron Aktiv 97 / 109 40% 2 24.02.2028 -
Amine Boukamir Charleroi Aktiv 103 / 111 40% 1 23.02.2028 -
Zino Sneijer Huesca Aktiv 106 / 114 40% 1 23.02.2028 -
Zane Albarus Shrewsbury Town Aktiv 102 / 107 40% 2 22.02.2028 -
Vojislav Jokić OFK Beograd Aktiv 107 / 116 40% 3 22.02.2028 -
Christos Mouzakitis Hull City Aktiv 138 / 140 40% 5 20.02.2028 -
Pape Diong Westerlo Aktiv 124 / 128 40% 2 18.02.2028 -
Matvey Bardachev Zenit Aktiv 107 / 110 40% 3 16.02.2028 -
Vinícius Lira São Paulo Aktiv 115 / 124 40% 5 14.02.2028 -
Felipe Faúndez O'Higgins Aktiv 100 / 106 40% 6 09.02.2028 -
Esquerdinha Notts County Aktiv 119 / 128 40% 4 09.02.2028 -
Nahuel Leivas Montevideo City Torque Aktiv 102 / 109 40% 9 04.02.2028 -
Ignacio Fernández Boston River Aktiv 92 / 100 40% 6 03.02.2028 -
Santiago Colidio Liepaja Aktiv 94 / 98 40% 5 27.01.2028 -
Josh Acheampong Everton Aktiv 145 / 148 40% 4 27.01.2028 -
Juan Manuel Villalba Tigre Aktiv 123 / 126 40% 4 26.01.2028 -
Nazareno Roselli Defensa y Justicia Aktiv 115 / 122 40% 6 25.01.2028 -
Ale García Las Palmas Aktiv 135 / 137 79% 1 06.01.2028 Befürworten
Bitello Universidad de Chile Verhandlung 135 / 135 68% 1 01.01.2028 -
Marcos Antonio Sport Recife Verloren 138 / 138 68% 1 01.01.2028 Befürworten
Yerry Gonzalez Universitario Popayan Aktiv 89 / 95 40% 3 31.12.2027 -
Agustín Obregón River Plate Aktiv 114 / 118 40% 4 31.12.2027 -
Héctor Fort Real Sociedad Aktiv 140 / 144 40% 2 30.12.2027 -
Victor Hernandez Santa Fe Aktiv 121 / 123 40% 28 25.12.2027 -
Caleb Yirenkyi Coventry City Aktiv 141 / 145 40% 6 24.12.2027 -
Jorrel Hato Chelsea Aktiv 157 / 156 40% 1 24.12.2027 -
Colin Guske Orlando City Aktiv 98 / 100 40% 4 21.12.2027 -
Agustín De la Cuesta Racing Aktiv 113 / 118 40% 10 17.12.2027 -
Archie Gray Southampton Aktiv 154 / 156 40% 8 17.12.2027 -
Olaniyi Saheed Kwara United Aktiv 89 / 104 40% 8 16.12.2027 -
Ángel Aguayo Sol de America Aktiv 97 / 99 40% 3 28.11.2027 -
Ulises Giménez River Plate Aktiv 107 / 115 40% 3 25.11.2027 -
Facundo Balatti Penarol Aktiv 105 / 112 40% 4 25.11.2027 -
Nicolás Blanco San Lorenzo Aktiv 96 / 108 40% 3 24.11.2027 -
Alan Valdelamar Independiente Medellin Aktiv 90 / 99 40% 2 24.11.2027 -
Gideon Manaseh Ikorodu City Aktiv 100 / 97 40% 2 23.11.2027 -
Adrian Skogmar Malmo FF Aktiv 117 / 122 40% 2 17.11.2027 -
Luciano Posadas Central Córdoba SdE Aktiv 91 / 100 40% 4 08.11.2027 -
Oscar Steinke Brånby Hammarby Aktiv 104 / 108 40% 1 08.11.2027 -
Zahir Ibarra Defensa y Justicia Aktiv 99 / 108 40% 1 05.11.2027 -
Hugo Rojas Instituto Aktiv 109 / 109 40% 2 26.10.2027 -
Yury Oyarzo Racing Aktiv 87 / 101 40% 2 24.10.2027 -
Daniel Idoko Ikorodu City Aktiv 84 / 92 40% 2 24.10.2027 -
Alejandro Almaraz NK Celje Aktiv 112 / 119 40% 1 23.10.2027 -
Vitor Reis Manchester City Aktiv 140 / 141 40% 1 22.10.2027 -
Esteban de Lima Tacuarembo Aktiv 93 / 97 40% 5 21.10.2027 -
Joel Ezra Enyimba Aktiv 91 / 99 40% 2 20.10.2027 -
Celías Ingenthron Platense Aktiv 118 / 124 40% 4 18.10.2027 -
Sebastián Ramírez Aguilas Doradas Aktiv 104 / 114 40% 1 06.10.2027 -
Axel Leiva Independiente Rivadavia Aktiv 90 / 97 40% 1 17.09.2027 -
Santiago Murillo Alianza Petrolera Aktiv 132 / 132 40% 4 10.09.2027 -
Gabriel Moscardo Paris Saint-Germain Aktiv 138 / 140 40% 1 10.09.2027 -
Mirza Ćatović VfB Stuttgart Aktiv 119 / 131 40% 1 08.09.2027 -
Diego Vargas Universidad de Concepcion Aktiv 92 / 97 40% 4 04.09.2027 -
Ignacio Ovando Rosario Central Aktiv 107 / 116 40% 1 02.09.2027 -
Alejandro Leiva Patronato Aktiv 95 / 103 40% 2 30.08.2027 -
Federico Matarán Giana Erminio Aktiv 94 / 111 40% 2 16.08.2027 -
Gadiel Paoli River Plate Aktiv 89 / 101 40% 1 16.08.2027 -
Yusi Alavés Aktiv 133 / 141 40% 6 11.08.2027 -
Kazunari Kita Real Sociedad Aktiv 108 / 109 67% 5 02.08.2027 Beobachten
Mbekezeli Mbokazi Chicago Fire Aktiv 119 / 126 40% 1 02.08.2027 -
Lucas Bergvall Tottenham Aktiv 153 / 153 40% 1 26.07.2027 -
Simón Pinto Huachipato Aktiv 106 / 108 40% 1 19.07.2027 -
Toni Tamarit Alverca Aktiv 123 / 124 40% 4 12.07.2027 -
Marco Oroná Antofagasta Aktiv 93 / 104 40% 2 06.07.2027 -
Alpha Touré FC Metz Aktiv 115 / 124 40% 3 06.07.2027 -
Samuel Lucero Defensa y Justicia Aktiv 110 / 124 40% 3 28.06.2027 -
Eliás Montiel Borussia Dortmund Aktiv 137 / 137 40% 2 28.06.2027 -
Matvey Kislyak CSKA Moscow Aktiv 140 / 138 40% 1 28.06.2027 -
Gonçalo Oliveira Benfica Aktiv 112 / 115 40% 3 16.06.2027 -
Rhys Walters Port Vale Aktiv 98 / 110 40% 2 16.06.2027 -
Erick Sánchez RC Lens Verhandlung 139 / 139 68% 1 01.06.2027 -
Yussif Saidu Zaragoza Aktiv 125 / 130 40% 5 29.05.2027 -
Pietro Reggiori Pro Patria Aktiv 96 / 96 40% 3 26.05.2027 -
João Teixeira Porto Aktiv 104 / 119 40% 5 25.05.2027 -
Gustavo Albarracín Alavés Aktiv 104 / 120 40% 1 25.05.2027 -
Tiago Freitas Benfica Aktiv 112 / 116 40% 2 23.05.2027 -
Jenson Jones Walsall Aktiv 92 / 98 40% 1 23.05.2027 -
Jon Garro Real Sociedad Aktiv 95 / 91 67% 6 22.05.2027 Beobachten
Ivan Giraldo Valencia Aktiv 126 / 130 40% 8 21.05.2027 -
Louis Leroux FC Nantes Aktiv 124 / 132 40% 2 21.05.2027 -
Riley Owen Stevenage Aktiv 101 / 108 40% 4 20.05.2027 -
Bongani Jali Free State Stars Aktiv 101 / 104 40% 4 20.05.2027 -
Sascha Britschgi AC Milan Aktiv 122 / 131 40% 1 18.05.2027 -
Francis Gomez Cardiff City Aktiv 112 / 112 40% 2 13.05.2027 -
Henrique Silva Santa Clara Aktiv 112 / 113 40% 1 12.05.2027 -
José Pachuca Puebla Aktiv 101 / 116 40% 6 03.05.2027 -
Alessandro Zoboletti Sambenedettese Aktiv 86 / 98 40% 1 29.04.2027 -
James Bacca La Equidad Aktiv 132 / 127 40% 4 28.04.2027 -
Ezra Mayers West Ham United Aktiv 110 / 124 40% 1 23.04.2027 -
Pau Navarro Villarreal Aktiv 147 / 146 40% 3 14.04.2027 -
Bernardo Lima Porto Aktiv 99 / 109 40% 1 08.04.2027 -
Charlie Gray Fleetwood Town Aktiv 95 / 96 40% 1 06.04.2027 -
Federico Pereira Toulouse FC Aktiv 135 / 135 66% 1 01.01.2027 Befürworten
Raúl Rangel Braga Verhandlung 132 / 132 66% 1 01.01.2027 -
James Dornelly Peterborough United Aktiv 100 / 106 40% 2 22.12.2026 -
Joaquin Seys Club Brugge Aktiv 129 / 128 40% 1 20.12.2026 -
Santiago Fernández Talleres Aktiv 114 / 129 40% 2 19.12.2026 -
Agustín Medina Lanús Aktiv 118 / 120 40% 3 14.12.2026 -
Nico O'Reilly Manchester City Aktiv 157 / 155 40% 4 14.12.2026 -
Kyriani Sabbe Club Brugge Aktiv 119 / 121 40% 1 12.12.2026 -
Sabil Hansen Randers Aktiv 111 / 116 40% 1 09.12.2026 -
Nahuel Arias San Lorenzo Aktiv 112 / 125 40% 1 09.12.2026 -
Philippe Ndinga Philadelphia Union Aktiv 114 / 112 40% 1 04.11.2026 -
Facundo Di Biasi Gimnasia La Plata Aktiv 111 / 127 40% 1 07.10.2026 -
Lautaro Vargas Unión de Santa Fe Aktiv 114 / 130 40% 1 07.09.2026 -
Luiz Henrique AS Roma Verloren 142 / 143 68% 1 31.08.2026 -
Juan Fernándes Pinto Almagro Aktiv 102 / 102 40% 1 18.08.2026 -